Terminal Aerodrome Forecast
Issued by NWS Sterling, VA

Current Version | Previous Version | Graphics & Text | Print | Product List | Glossary On
Versions: 1 2 3 4 5 6 7 8 9 10 11 12 13 14 15 16 17 18 19 20 21 22 23
000
FTUS41 KLWX 280200 AAA
TAFDCA
TAF AMD
KDCA 280214Z 2802/2824 19010KT P6SM SCT040 BKN090
     FM280400 22007KT 5SM -TSRA BKN050CB
     FM280600 22006KT P6SM VCTS BKN050CB
     FM280900 26010KT P6SM SCT050 BKN130
     FM282300 30011KT P6SM BKN050=

USA.gov is the U.S. government's official web portal to all federal, state and local government web resources and services.